Gusto — WDJ5621 — position and weather

sailwx.info

Track history (hours):
 
Tides and Currents Weather Stations Pressure Air Temp Water Temp Dewpoint Dewpoint Depression Visibility Wind Speed Wind Dir Waves Ship Positions

Gusto

Owner: Lighthouse Partners L.L.C., SEATTLE, WA. More information available from US FCC via Universal Licensing System and Coast Guard Vessel Documentation Center.

Last reported at 2018-Jul-10 09:15 UTC. Time now 2018-Jul-19 15:06 UTC.
Position N 36°46' W 124°20'.
Warning: this ship's position is 9 days out of date.

Length 14 m.

Type: Sailing vessel. MMSI: 367789640.

Date/timePositionNaut miles runAvg speedWind from/ knotsBaromVisibWave heightAir tempDewpointWater temp
2018-Jul-10 09:15N 36°46' W 124°20'3 7.9
2018-Jul-10 08:49N 36°48' W 124°16'5 8.0
2018-Jul-10 08:10N 36°52' W 124°11'1 7.5
2018-Jul-10 08:00N 36°53' W 124°10'4 7.6
2018-Jul-10 07:30N 36°55' W 124°06'6 7.4
2018-Jul-10 06:42N 36°57' W 123°60'2 7.8
2018-Jul-10 06:25N 36°59' W 123°58'3 8.2
2018-Jul-10 06:00N 37°01' W 123°55'4 8.1
2018-Jul-10 05:29N 37°04' W 123°51'4 8.0
2018-Jul-10 04:59N 37°06' W 123°47'4 7.8
2018-Jul-10 04:29N 37°09' W 123°43'4 8.2
2018-Jul-10 04:00N 37°11' W 123°39'4 8.5
2018-Jul-10 03:29N 37°14' W 123°35'4 8.9
2018-Jul-10 03:00N 37°17' W 123°31'5 9.0
2018-Jul-10 02:28N 37°20' W 123°26'4 8.7
2018-Jul-10 02:00N 37°23' W 123°23'4 8.6
2018-Jul-10 01:30N 37°26' W 123°18'5 8.4
2018-Jul-10 00:54N 37°29' W 123°14'3 8.2
2018-Jul-10 00:31N 37°31' W 123°10'4 7.9
2018-Jul-09 23:59N 37°33' W 123°06'4 7.8
2018-Jul-09 23:30N 37°35' W 123°02'4 7.6
2018-Jul-09 23:00N 37°37' W 122°57'4 7.3
2018-Jul-09 22:30N 37°38' W 122°53'4 7.1
2018-Jul-09 22:00N 37°40' W 122°49'3 6.8
2018-Jul-09 21:31N 37°41' W 122°45'11 6.8
2018-Jul-09 19:56N 37°46' W 122°34'3 6.4
2018-Jul-09 19:30N 37°48' W 122°31'2 4.2
2018-Jul-09 19:00N 37°49' W 122°29'2 3.4
2018-Jul-09 18:29N 37°49' W 122°27'1 1.4
2018-Jul-09 18:00N 37°48' W 122°26'0 0.0
2018-Jul-09 17:30N 37°48' W 122°26'0 0.1
2018-Jul-09 16:59N 37°48' W 122°26'1 2.8
2018-Jul-09 16:30N 37°50' W 122°26'3 6.1
2018-Jul-09 15:59N 37°53' W 122°25'2 4.0
2018-Jul-09 15:31N 37°54' W 122°23'0 0.7
2018-Jul-09 14:58N 37°55' W 122°23'0 0.0
2018-Jul-09 14:10N 37°55' W 122°23'0 0.0
2018-Jul-09 05:47N 37°55' W 122°23'0 0.0
2018-Jul-09 05:29N 37°55' W 122°23'0 0.0
2018-Jul-09 04:50N 37°55' W 122°23'0 0.0
2018-Jul-09 04:20N 37°55' W 122°23'0 0.0
2018-Jul-09 03:59N 37°55' W 122°23'0 0.0
2018-Jul-09 03:26N 37°55' W 122°23'0 0.0
2018-Jul-09 02:59N 37°55' W 122°23'0 0.0
2018-Jul-09 02:17N 37°55' W 122°23'0 0.0
2018-Jul-09 01:59N 37°55' W 122°23'0 0.0
2018-Jul-09 01:29N 37°55' W 122°23'0 0.0
2018-Jul-09 00:32N 37°55' W 122°23'0 0.0
2018-Jul-09 00:26N 37°55' W 122°23'0 0.0
2018-Jul-08 23:56N 37°55' W 122°23'0 0.0
2018-Jul-08 23:29N 37°55' W 122°23'0 0.0
2018-Jul-08 22:59N 37°55' W 122°23'0 0.0
2018-Jul-08 22:29N 37°55' W 122°23'0 0.0
2018-Jul-08 21:32N 37°55' W 122°23'0 0.0
2018-Jul-08 21:29N 37°55' W 122°23'0 0.0
2018-Jul-08 20:59N 37°55' W 122°23'0 0.0
2018-Jul-08 20:29N 37°55' W 122°23'0 0.0
2018-Jul-08 19:59N 37°55' W 122°23'0 0.0
2018-Jul-08 19:19N 37°55' W 122°23'0 0.0
2018-Jul-08 18:58N 37°55' W 122°23'0 0.0
2018-Jul-08 18:28N 37°55' W 122°23'0 0.0
2018-Jul-08 17:55N 37°55' W 122°23'0 0.0
2018-Jul-08 17:22N 37°55' W 122°23'0 0.0
2018-Jul-08 16:52N 37°55' W 122°23'0 0.0
2018-Jul-08 16:28N 37°55' W 122°23'0 0.0
2018-Jul-08 15:52N 37°55' W 122°23'0 0.0
2018-Jul-08 15:28N 37°55' W 122°23'0 0.0
2018-Jul-08 05:54N 37°55' W 122°23'0 0.0
2018-Jul-08 05:30N 37°55' W 122°23'0 0.0
2018-Jul-07 04:10N 37°55' W 122°23'0 0.0
2018-Jul-07 03:58N 37°55' W 122°23'1 3.0
2018-Jul-07 03:29N 37°54' W 122°25'1 1.4
2018-Jul-07 02:59N 37°54' W 122°24'1 0.1
2018-Jul-06 16:53N 37°55' W 122°23'1 3.0
2018-Jul-06 16:29N 37°54' W 122°24'3 6.8
2018-Jul-06 15:59N 37°50' W 122°24'3 6.6
2018-Jul-06 15:29N 37°47' W 122°23'0 0.0
2018-Jul-04 19:08N 37°47' W 122°23'0 0.4
2018-Jul-04 19:00N 37°47' W 122°23'2 4.9
2018-Jul-04 18:30N 37°49' W 122°25'3 6.9
2018-Jul-04 18:00N 37°49' W 122°29'2 4.8
2018-Jul-04 17:30N 37°49' W 122°32'13 5.6
2018-Jul-04 15:07N 37°51' W 122°49'1 6.6
2018-Jul-04 14:54N 37°52' W 122°50'3 6.6
2018-Jul-04 14:29N 37°52' W 122°54'3 6.4
2018-Jul-04 14:00N 37°54' W 122°57'3 6.3
2018-Jul-04 13:30N 37°56' W 123°01'3 5.7
2018-Jul-04 13:00N 37°58' W 123°03'3 5.2
2018-Jul-04 12:30N 37°60' W 123°05'3 5.3
2018-Jul-04 12:00N 38°02' W 123°07'3 5.1
2018-Jul-04 11:29N 38°04' W 123°08'3 5.8
2018-Jul-04 11:00N 38°07' W 123°10'3 6.3
2018-Jul-04 10:27N 38°10' W 123°12'3 6.3
2018-Jul-04 10:00N 38°12' W 123°14'3 6.2
2018-Jul-04 09:30N 38°15' W 123°16'4 7.3
2018-Jul-04 09:00N 38°18' W 123°18'4 7.4
2018-Jul-04 08:29N 38°22' W 123°21'3 7.2
2018-Jul-04 08:00N 38°24' W 123°23'4 6.9
2018-Jul-04 07:24N 38°28' W 123°26'  
2018-Jun-30 22:48N 44°60' W 124°49'2 6.7
2018-Jun-30 22:28N 45°02' W 124°48'6 4.9
2018-Jun-30 21:18N 45°07' W 124°45'6 4.8
2018-Jun-30 20:04N 45°13' W 124°44'6 7.1
2018-Jun-30 19:16N 45°18' W 124°40'1 4.6
2018-Jun-30 19:00N 45°19' W 124°40'3 4.9
2018-Jun-30 18:22N 45°23' W 124°40'6 7.7
2018-Jun-30 17:33N 45°29' W 124°40'0 7.6
2018-Jun-30 17:30N 45°29' W 124°40'4 7.6
2018-Jun-30 16:59N 45°33' W 124°40'4 7.9
2018-Jun-30 16:30N 45°37' W 124°40'3 6.1
2018-Jun-30 16:00N 45°40' W 124°39'2 3.1
2018-Jun-30 15:29N 45°41' W 124°39'2 4.1
2018-Jun-30 15:00N 45°43' W 124°39'3 5.1
2018-Jun-30 14:29N 45°46' W 124°39'3 6.6
2018-Jun-30 14:00N 45°49' W 124°38'3 5.7
2018-Jun-30 13:30N 45°52' W 124°38'4 7.8
2018-Jun-30 13:00N 45°56' W 124°38'4 7.8
2018-Jun-30 12:30N 45°60' W 124°38'4 7.6
2018-Jun-30 12:00N 46°04' W 124°39'4 7.4
2018-Jun-30 11:29N 46°07' W 124°39'4 7.5
2018-Jun-30 11:00N 46°11' W 124°39'4 7.5
2018-Jun-30 10:29N 46°15' W 124°39'4 7.5
2018-Jun-30 10:00N 46°19' W 124°39'4 7.5
2018-Jun-30 09:30N 46°22' W 124°39'  
Track history (hours):
 
Tides and Currents Weather Stations Pressure Air Temp Water Temp Dewpoint Dewpoint Depression Visibility Wind Speed Wind Dir Waves Ship Positions

Gusto

Owner: Lighthouse Partners L.L.C., SEATTLE, WA. More information available from US FCC via Universal Licensing System and Coast Guard Vessel Documentation Center.

Last reported at 2018-Jul-10 09:15 UTC. Time now 2018-Jul-19 15:06 UTC.
Position N 36°46' W 124°20'.
Warning: this ship's position is 9 days out of date.

Length 14 m.

Type: Sailing vessel. MMSI: 367789640.

Date/timePositionNaut miles runAvg speedWind from/ knotsBaromVisibWave heightAir tempDewpointWater temp
2018-Jul-10 09:15N 36°46' W 124°20'3 7.9
2018-Jul-10 08:49N 36°48' W 124°16'5 8.0
2018-Jul-10 08:10N 36°52' W 124°11'1 7.5
2018-Jul-10 08:00N 36°53' W 124°10'4 7.6
2018-Jul-10 07:30N 36°55' W 124°06'6 7.4
2018-Jul-10 06:42N 36°57' W 123°60'2 7.8
2018-Jul-10 06:25N 36°59' W 123°58'3 8.2
2018-Jul-10 06:00N 37°01' W 123°55'4 8.1
2018-Jul-10 05:29N 37°04' W 123°51'4 8.0
2018-Jul-10 04:59N 37°06' W 123°47'4 7.8
2018-Jul-10 04:29N 37°09' W 123°43'4 8.2
2018-Jul-10 04:00N 37°11' W 123°39'4 8.5
2018-Jul-10 03:29N 37°14' W 123°35'4 8.9
2018-Jul-10 03:00N 37°17' W 123°31'5 9.0
2018-Jul-10 02:28N 37°20' W 123°26'4 8.7
2018-Jul-10 02:00N 37°23' W 123°23'4 8.6
2018-Jul-10 01:30N 37°26' W 123°18'5 8.4
2018-Jul-10 00:54N 37°29' W 123°14'3 8.2
2018-Jul-10 00:31N 37°31' W 123°10'4 7.9
2018-Jul-09 23:59N 37°33' W 123°06'4 7.8
2018-Jul-09 23:30N 37°35' W 123°02'4 7.6
2018-Jul-09 23:00N 37°37' W 122°57'4 7.3
2018-Jul-09 22:30N 37°38' W 122°53'4 7.1
2018-Jul-09 22:00N 37°40' W 122°49'3 6.8
2018-Jul-09 21:31N 37°41' W 122°45'11 6.8
2018-Jul-09 19:56N 37°46' W 122°34'3 6.4
2018-Jul-09 19:30N 37°48' W 122°31'2 4.2
2018-Jul-09 19:00N 37°49' W 122°29'2 3.4
2018-Jul-09 18:29N 37°49' W 122°27'1 1.4
2018-Jul-09 18:00N 37°48' W 122°26'0 0.0
2018-Jul-09 17:30N 37°48' W 122°26'0 0.1
2018-Jul-09 16:59N 37°48' W 122°26'1 2.8
2018-Jul-09 16:30N 37°50' W 122°26'3 6.1
2018-Jul-09 15:59N 37°53' W 122°25'2 4.0
2018-Jul-09 15:31N 37°54' W 122°23'0 0.7
2018-Jul-09 14:58N 37°55' W 122°23'0 0.0
2018-Jul-09 14:10N 37°55' W 122°23'0 0.0
2018-Jul-09 05:47N 37°55' W 122°23'0 0.0
2018-Jul-09 05:29N 37°55' W 122°23'0 0.0
2018-Jul-09 04:50N 37°55' W 122°23'0 0.0
2018-Jul-09 04:20N 37°55' W 122°23'0 0.0
2018-Jul-09 03:59N 37°55' W 122°23'0 0.0
2018-Jul-09 03:26N 37°55' W 122°23'0 0.0
2018-Jul-09 02:59N 37°55' W 122°23'0 0.0
2018-Jul-09 02:17N 37°55' W 122°23'0 0.0
2018-Jul-09 01:59N 37°55' W 122°23'0 0.0
2018-Jul-09 01:29N 37°55' W 122°23'0 0.0
2018-Jul-09 00:32N 37°55' W 122°23'0 0.0
2018-Jul-09 00:26N 37°55' W 122°23'0 0.0
2018-Jul-08 23:56N 37°55' W 122°23'0 0.0
2018-Jul-08 23:29N 37°55' W 122°23'0 0.0
2018-Jul-08 22:59N 37°55' W 122°23'0 0.0
2018-Jul-08 22:29N 37°55' W 122°23'0 0.0
2018-Jul-08 21:32N 37°55' W 122°23'0 0.0
2018-Jul-08 21:29N 37°55' W 122°23'0 0.0
2018-Jul-08 20:59N 37°55' W 122°23'0 0.0
2018-Jul-08 20:29N 37°55' W 122°23'0 0.0
2018-Jul-08 19:59N 37°55' W 122°23'0 0.0
2018-Jul-08 19:19N 37°55' W 122°23'0 0.0
2018-Jul-08 18:58N 37°55' W 122°23'0 0.0
2018-Jul-08 18:28N 37°55' W 122°23'0 0.0
2018-Jul-08 17:55N 37°55' W 122°23'0 0.0
2018-Jul-08 17:22N 37°55' W 122°23'0 0.0
2018-Jul-08 16:52N 37°55' W 122°23'0 0.0
2018-Jul-08 16:28N 37°55' W 122°23'0 0.0
2018-Jul-08 15:52N 37°55' W 122°23'0 0.0
2018-Jul-08 15:28N 37°55' W 122°23'0 0.0
2018-Jul-08 05:54N 37°55' W 122°23'0 0.0
2018-Jul-08 05:30N 37°55' W 122°23'0 0.0
2018-Jul-07 04:10N 37°55' W 122°23'0 0.0
2018-Jul-07 03:58N 37°55' W 122°23'1 3.0
2018-Jul-07 03:29N 37°54' W 122°25'1 1.4
2018-Jul-07 02:59N 37°54' W 122°24'1 0.1
2018-Jul-06 16:53N 37°55' W 122°23'1 3.0
2018-Jul-06 16:29N 37°54' W 122°24'3 6.8
2018-Jul-06 15:59N 37°50' W 122°24'3 6.6
2018-Jul-06 15:29N 37°47' W 122°23'0 0.0
2018-Jul-04 19:08N 37°47' W 122°23'0 0.4
2018-Jul-04 19:00N 37°47' W 122°23'2 4.9
2018-Jul-04 18:30N 37°49' W 122°25'3 6.9
2018-Jul-04 18:00N 37°49' W 122°29'2 4.8
2018-Jul-04 17:30N 37°49' W 122°32'13 5.6
2018-Jul-04 15:07N 37°51' W 122°49'1 6.6
2018-Jul-04 14:54N 37°52' W 122°50'3 6.6
2018-Jul-04 14:29N 37°52' W 122°54'3 6.4
2018-Jul-04 14:00N 37°54' W 122°57'3 6.3
2018-Jul-04 13:30N 37°56' W 123°01'3 5.7
2018-Jul-04 13:00N 37°58' W 123°03'3 5.2
2018-Jul-04 12:30N 37°60' W 123°05'3 5.3
2018-Jul-04 12:00N 38°02' W 123°07'3 5.1
2018-Jul-04 11:29N 38°04' W 123°08'3 5.8
2018-Jul-04 11:00N 38°07' W 123°10'3 6.3
2018-Jul-04 10:27N 38°10' W 123°12'3 6.3
2018-Jul-04 10:00N 38°12' W 123°14'3 6.2
2018-Jul-04 09:30N 38°15' W 123°16'4 7.3
2018-Jul-04 09:00N 38°18' W 123°18'4 7.4
2018-Jul-04 08:29N 38°22' W 123°21'3 7.2
2018-Jul-04 08:00N 38°24' W 123°23'4 6.9
2018-Jul-04 07:24N 38°28' W 123°26'  
2018-Jun-30 22:48N 44°60' W 124°49'2 6.7
2018-Jun-30 22:28N 45°02' W 124°48'6 4.9
2018-Jun-30 21:18N 45°07' W 124°45'6 4.8
2018-Jun-30 20:04N 45°13' W 124°44'6 7.1
2018-Jun-30 19:16N 45°18' W 124°40'1 4.6
2018-Jun-30 19:00N 45°19' W 124°40'3 4.9
2018-Jun-30 18:22N 45°23' W 124°40'6 7.7
2018-Jun-30 17:33N 45°29' W 124°40'0 7.6
2018-Jun-30 17:30N 45°29' W 124°40'4 7.6
2018-Jun-30 16:59N 45°33' W 124°40'4 7.9
2018-Jun-30 16:30N 45°37' W 124°40'3 6.1
2018-Jun-30 16:00N 45°40' W 124°39'2 3.1
2018-Jun-30 15:29N 45°41' W 124°39'2 4.1
2018-Jun-30 15:00N 45°43' W 124°39'3 5.1
2018-Jun-30 14:29N 45°46' W 124°39'3 6.6
2018-Jun-30 14:00N 45°49' W 124°38'3 5.7
2018-Jun-30 13:30N 45°52' W 124°38'4 7.8
2018-Jun-30 13:00N 45°56' W 124°38'4 7.8
2018-Jun-30 12:30N 45°60' W 124°38'4 7.6
2018-Jun-30 12:00N 46°04' W 124°39'4 7.4
2018-Jun-30 11:29N 46°07' W 124°39'4 7.5
2018-Jun-30 11:00N 46°11' W 124°39'4 7.5
2018-Jun-30 10:29N 46°15' W 124°39'4 7.5
2018-Jun-30 10:00N 46°19' W 124°39'4 7.5
2018-Jun-30 09:30N 46°22' W 124°39'  

Dump ship's entire track history